createdAt,value
2019-03-24T00:00:01.594Z,83.10
2019-03-24T00:02:31.554Z,82.90
2019-03-24T00:04:59.537Z,83.10
2019-03-24T00:07:27.319Z,82.90
2019-03-24T00:09:55.186Z,83.10
2019-03-24T00:12:23.176Z,83.00
2019-03-24T00:14:52.156Z,83.20
2019-03-24T00:17:20.161Z,83.30
2019-03-24T00:19:48.141Z,83.50
2019-03-24T00:22:16.358Z,83.50
2019-03-24T00:24:44.999Z,83.60
2019-03-24T00:27:13.410Z,83.60
2019-03-24T00:29:41.389Z,83.40
2019-03-24T00:32:09.411Z,83.50
2019-03-24T00:34:37.298Z,83.80
2019-03-24T00:37:05.395Z,83.90
2019-03-24T00:39:33.272Z,84.10
2019-03-24T00:42:01.318Z,84.10
2019-03-24T00:44:29.199Z,84.10
2019-03-24T00:46:57.214Z,84.00
2019-03-24T00:49:25.143Z,84.10
2019-03-24T00:51:53.176Z,84.00
2019-03-24T00:54:21.100Z,84.00
2019-03-24T00:56:49.119Z,84.20
2019-03-24T00:59:17.100Z,84.40
2019-03-24T01:01:45.101Z,84.30
2019-03-24T01:04:13.100Z,84.50
2019-03-24T01:06:40.907Z,84.60
2019-03-24T01:09:09.299Z,84.60
2019-03-24T01:11:37.331Z,85.10
2019-03-24T01:14:05.737Z,85.10
2019-03-24T01:16:33.661Z,84.80
2019-03-24T01:19:01.675Z,84.90
2019-03-24T01:21:29.601Z,84.70
2019-03-24T01:23:57.539Z,84.50
2019-03-24T01:26:25.462Z,84.70
2019-03-24T01:28:53.709Z,84.70
2019-03-24T01:31:21.940Z,84.60
2019-03-24T01:33:50.031Z,84.80
2019-03-24T01:36:18.159Z,85.00
2019-03-24T01:38:46.192Z,85.10
2019-03-24T01:41:14.411Z,85.10
2019-03-24T01:43:42.447Z,85.60
2019-03-24T01:46:10.682Z,85.50
2019-03-24T01:48:38.882Z,85.30
2019-03-24T01:51:07.020Z,85.20
2019-03-24T01:53:35.035Z,85.50
2019-03-24T01:56:04.290Z,85.60
2019-03-24T01:58:33.518Z,86.00
2019-03-24T02:01:01.627Z,86.20
2019-03-24T02:03:29.836Z,86.40
2019-03-24T02:05:58.400Z,86.60
2019-03-24T02:08:26.515Z,86.60
2019-03-24T02:10:54.724Z,86.70
2019-03-24T02:13:22.781Z,86.70
2019-03-24T02:15:51.008Z,86.90
2019-03-24T02:18:19.072Z,87.20
2019-03-24T02:20:47.273Z,87.10
2019-03-24T02:23:15.500Z,86.90
2019-03-24T02:25:43.564Z,87.00
2019-03-24T02:28:11.882Z,86.80
2019-03-24T02:30:39.969Z,86.70
2019-03-24T02:33:08.051Z,86.70
2019-03-24T02:35:36.711Z,86.70
2019-03-24T02:38:05.054Z,86.80
2019-03-24T02:40:33.312Z,86.40
2019-03-24T02:43:02.011Z,86.70
2019-03-24T02:45:30.265Z,86.90
2019-03-24T02:47:58.450Z,87.00
2019-03-24T02:50:26.896Z,87.30
2019-03-24T02:52:55.228Z,87.60
2019-03-24T02:55:23.811Z,87.60
2019-03-24T02:57:52.280Z,87.80
2019-03-24T03:00:20.497Z,87.90
2019-03-24T03:02:48.680Z,88.20
2019-03-24T03:05:17.018Z,88.60
2019-03-24T03:07:45.290Z,88.80
2019-03-24T03:10:13.655Z,88.50
2019-03-24T03:12:41.729Z,88.70
2019-03-24T03:15:11.220Z,88.60
2019-03-24T03:17:39.309Z,88.30
2019-03-24T03:20:08.706Z,88.30
2019-03-24T03:22:36.876Z,88.60
2019-03-24T03:25:05.375Z,88.20
2019-03-24T03:27:33.451Z,87.30
2019-03-24T03:30:01.557Z,87.20
2019-03-24T03:32:29.764Z,87.40
2019-03-24T03:34:58.905Z,87.70
2019-03-24T03:37:26.966Z,87.60
2019-03-24T03:39:57.954Z,87.60
2019-03-24T03:42:24.987Z,87.50
2019-03-24T03:44:53.041Z,87.20
2019-03-24T03:47:21.285Z,87.30
2019-03-24T03:49:49.468Z,87.40
2019-03-24T03:52:18.849Z,87.70
2019-03-24T03:54:46.917Z,87.60
2019-03-24T03:57:14.993Z,87.40
2019-03-24T03:59:43.182Z,87.50
2019-03-24T04:02:11.331Z,87.40
2019-03-24T04:04:39.408Z,87.40
2019-03-24T04:07:07.449Z,87.60
2019-03-24T04:09:35.522Z,87.40
2019-03-24T04:12:03.581Z,87.50
2019-03-24T04:14:31.640Z,87.60
2019-03-24T04:17:07.223Z,87.60
2019-03-24T04:19:29.789Z,87.60
2019-03-24T04:21:57.847Z,87.90
2019-03-24T04:24:26.569Z,88.00
2019-03-24T04:26:55.719Z,87.50
2019-03-24T04:29:23.870Z,87.80
2019-03-24T04:31:51.933Z,87.90
2019-03-24T04:34:20.002Z,88.10
2019-03-24T04:36:48.078Z,88.10
2019-03-24T04:39:16.232Z,88.20
2019-03-24T04:41:44.316Z,88.00
2019-03-24T04:44:12.358Z,88.10
2019-03-24T04:46:41.382Z,88.20
2019-03-24T04:49:09.548Z,88.40
2019-03-24T04:51:37.654Z,88.80
2019-03-24T04:54:05.743Z,89.70
2019-03-24T04:56:33.902Z,89.70
2019-03-24T04:59:02.091Z,89.70
2019-03-24T05:01:30.152Z,89.10
2019-03-24T05:03:58.261Z,88.90
2019-03-24T05:06:26.993Z,89.10
2019-03-24T05:08:55.128Z,89.00
2019-03-24T05:11:23.153Z,88.80
2019-03-24T05:13:51.219Z,88.80
2019-03-24T05:16:19.291Z,88.80
2019-03-24T05:18:47.361Z,88.70
2019-03-24T05:21:15.468Z,88.60
2019-03-24T05:23:46.025Z,89.00
2019-03-24T05:26:13.819Z,89.10
2019-03-24T05:28:41.948Z,89.00
2019-03-24T05:31:10.002Z,89.00
2019-03-24T05:33:38.048Z,89.30
2019-03-24T05:36:06.156Z,89.30
2019-03-24T05:38:34.312Z,89.50
2019-03-24T05:41:02.352Z,89.30
2019-03-24T05:43:30.412Z,89.40
2019-03-24T05:45:58.555Z,89.40
2019-03-24T05:48:26.608Z,89.50
2019-03-24T05:50:54.643Z,89.50
2019-03-24T05:53:22.706Z,89.40
2019-03-24T05:55:50.765Z,89.80
2019-03-24T05:58:18.861Z,89.80
2019-03-24T06:00:46.912Z,89.90
2019-03-24T06:03:14.956Z,90.10
2019-03-24T06:05:43.146Z,89.80
2019-03-24T06:08:11.192Z,89.70
2019-03-24T06:10:40.578Z,89.90
2019-03-24T06:13:08.657Z,89.90
2019-03-24T06:15:36.708Z,89.90
2019-03-24T06:18:04.807Z,90.00
2019-03-24T06:20:32.859Z,89.80
2019-03-24T06:23:00.997Z,89.60
2019-03-24T06:25:29.094Z,89.40
2019-03-24T06:27:57.136Z,89.40
2019-03-24T06:30:25.297Z,89.30
2019-03-24T06:32:53.401Z,89.30
2019-03-24T06:35:21.551Z,89.30
2019-03-24T06:37:49.620Z,89.30
2019-03-24T06:40:19.736Z,89.10
2019-03-24T06:42:47.984Z,89.10
2019-03-24T06:45:16.074Z,89.40
2019-03-24T06:47:44.105Z,89.20
2019-03-24T06:50:13.772Z,89.30
2019-03-24T06:52:41.876Z,89.00
2019-03-24T06:55:10.073Z,88.90
2019-03-24T06:57:38.159Z,88.90
2019-03-24T07:00:07.221Z,89.10
2019-03-24T07:02:35.312Z,89.10
2019-03-24T07:05:03.938Z,89.20
2019-03-24T07:07:32.028Z,89.20
2019-03-24T07:10:00.172Z,89.30
2019-03-24T07:12:28.461Z,89.40
2019-03-24T07:14:57.039Z,89.20
2019-03-24T07:17:25.373Z,89.30
2019-03-24T07:19:53.442Z,89.00
2019-03-24T07:22:21.500Z,88.50
2019-03-24T07:24:49.825Z,88.40
2019-03-24T07:27:19.392Z,88.50
2019-03-24T07:29:47.984Z,88.40
2019-03-24T07:32:17.603Z,88.10
2019-03-24T07:34:47.348Z,88.20
2019-03-24T07:37:16.479Z,88.30
2019-03-24T07:39:45.340Z,88.30
2019-03-24T07:42:15.345Z,88.40
2019-03-24T07:44:45.288Z,88.60
2019-03-24T07:47:13.648Z,88.60
2019-03-24T07:49:42.147Z,89.10
2019-03-24T07:52:10.643Z,88.60
2019-03-24T07:54:39.680Z,88.50
2019-03-24T07:57:09.904Z,89.30
2019-03-24T07:59:38.633Z,89.20
2019-03-24T08:02:07.299Z,88.80
2019-03-24T08:04:36.533Z,88.90
2019-03-24T08:07:05.769Z,89.00
2019-03-24T08:09:34.078Z,88.90
2019-03-24T08:12:02.437Z,89.00
2019-03-24T08:14:30.572Z,89.20
2019-03-24T08:16:58.668Z,89.10
2019-03-24T08:19:26.831Z,89.20
2019-03-24T08:21:54.989Z,89.40
2019-03-24T08:24:23.225Z,89.40
2019-03-24T08:26:51.418Z,89.40
2019-03-24T08:29:19.516Z,89.80
2019-03-24T08:31:47.588Z,89.60
2019-03-24T08:34:16.764Z,89.10
2019-03-24T08:36:45.037Z,89.00
2019-03-24T08:39:13.236Z,89.10
2019-03-24T08:41:41.256Z,88.30
2019-03-24T08:44:09.288Z,87.90
2019-03-24T08:46:37.388Z,87.70
2019-03-24T08:49:05.607Z,88.00
2019-03-24T08:51:33.897Z,87.50
2019-03-24T08:54:02.116Z,86.90
2019-03-24T08:56:31.391Z,86.80
2019-03-24T08:58:59.741Z,86.20
2019-03-24T09:01:27.814Z,85.60
2019-03-24T09:03:56.946Z,85.00
2019-03-24T09:06:26.016Z,84.90
2019-03-24T09:08:54.059Z,84.90
2019-03-24T09:11:31.221Z,84.40
2019-03-24T09:13:54.285Z,84.00
2019-03-24T09:17:07.863Z,83.60
2019-03-24T09:19:40.800Z,83.20
2019-03-24T09:22:09.095Z,83.20
2019-03-24T09:24:37.535Z,82.50
2019-03-24T09:27:05.722Z,83.00
2019-03-24T09:29:35.690Z,83.00
2019-03-24T09:32:03.956Z,82.20
2019-03-24T09:34:32.371Z,81.90
2019-03-24T09:37:00.622Z,81.90
2019-03-24T09:39:28.775Z,81.20
2019-03-24T09:41:57.346Z,81.10
2019-03-24T09:44:26.631Z,80.60
2019-03-24T09:46:54.719Z,81.00
2019-03-24T09:49:23.032Z,80.40
2019-03-24T09:51:51.255Z,78.40
2019-03-24T09:54:19.624Z,78.50
2019-03-24T09:56:49.133Z,78.50
2019-03-24T09:59:17.611Z,78.80
2019-03-24T10:01:45.684Z,78.90
2019-03-24T10:04:13.866Z,77.90
2019-03-24T10:06:42.068Z,78.20
2019-03-24T10:09:10.223Z,78.20
2019-03-24T10:11:40.688Z,78.20
2019-03-24T10:14:08.765Z,78.10
2019-03-24T10:16:37.710Z,77.10
2019-03-24T10:19:13.473Z,77.10
2019-03-24T10:21:35.779Z,77.20
2019-03-24T10:24:04.469Z,77.60
2019-03-24T10:26:32.896Z,76.40
2019-03-24T10:29:01.004Z,76.30
2019-03-24T10:31:29.633Z,75.50
2019-03-24T10:33:58.342Z,74.40
2019-03-24T10:36:27.272Z,75.20
2019-03-24T10:38:55.375Z,73.50
2019-03-24T10:41:23.646Z,73.50
2019-03-24T10:43:52.080Z,73.80
2019-03-24T10:46:20.661Z,73.60
2019-03-24T10:48:48.728Z,73.70
2019-03-24T10:51:16.851Z,75.30
2019-03-24T10:53:45.016Z,75.10
2019-03-24T10:56:13.069Z,74.60
2019-03-24T10:58:41.117Z,74.30
2019-03-24T11:01:09.251Z,75.00
2019-03-24T11:03:37.318Z,76.10
2019-03-24T11:06:05.468Z,77.30
2019-03-24T11:08:33.676Z,77.10
2019-03-24T11:11:02.645Z,76.90
2019-03-24T11:13:30.707Z,76.90
2019-03-24T11:15:59.681Z,77.30
2019-03-24T11:18:28.023Z,76.90
2019-03-24T11:20:56.174Z,77.70
2019-03-24T11:23:24.223Z,77.50
2019-03-24T11:25:52.308Z,76.60
2019-03-24T11:28:21.472Z,75.60
2019-03-24T11:30:49.516Z,75.70
2019-03-24T11:33:17.633Z,75.70
2019-03-24T11:35:45.627Z,75.20
2019-03-24T11:38:13.656Z,75.60
2019-03-24T11:40:42.120Z,75.40
2019-03-24T11:43:11.899Z,75.50
2019-03-24T11:45:39.977Z,75.60
2019-03-24T11:48:08.434Z,75.00
2019-03-24T11:50:36.437Z,74.70
2019-03-24T11:53:04.537Z,74.30
2019-03-24T11:55:32.619Z,74.10
2019-03-24T11:58:05.747Z,73.50
2019-03-24T12:00:35.456Z,73.50
2019-03-24T12:03:03.597Z,72.50
2019-03-24T12:05:31.857Z,73.10
2019-03-24T12:08:02.077Z,74.20
2019-03-24T12:10:30.133Z,73.90
2019-03-24T12:12:58.694Z,72.50
2019-03-24T12:15:26.701Z,73.30
2019-03-24T12:17:55.209Z,72.50
2019-03-24T12:20:23.205Z,72.20
2019-03-24T12:22:53.277Z,72.40
2019-03-24T12:25:21.472Z,71.30
2019-03-24T12:27:49.532Z,72.20
2019-03-24T12:30:17.593Z,72.70
2019-03-24T12:32:45.654Z,71.90
2019-03-24T12:35:13.708Z,70.60
2019-03-24T12:37:45.398Z,69.30
2019-03-24T12:40:13.427Z,69.30
2019-03-24T12:42:41.400Z,69.60
2019-03-24T12:45:10.833Z,69.30
2019-03-24T12:47:38.974Z,70.20
2019-03-24T12:50:09.311Z,69.70
2019-03-24T12:52:37.547Z,69.90
2019-03-24T12:55:05.814Z,70.10
2019-03-24T12:57:33.830Z,69.40
2019-03-24T13:00:01.803Z,69.80
2019-03-24T13:02:31.605Z,70.30
2019-03-24T13:04:59.604Z,70.20
2019-03-24T13:07:27.625Z,70.20
2019-03-24T13:09:55.778Z,70.00
2019-03-24T13:12:23.823Z,70.30
2019-03-24T13:14:51.850Z,70.10
2019-03-24T13:17:19.682Z,70.80
2019-03-24T13:19:47.574Z,70.60
2019-03-24T13:22:15.616Z,70.70
2019-03-24T13:24:45.487Z,71.20
2019-03-24T13:27:13.485Z,71.40
2019-03-24T13:29:41.264Z,70.80
2019-03-24T13:32:09.157Z,70.60
2019-03-24T13:34:39.214Z,70.70
2019-03-24T13:37:07.099Z,70.50
2019-03-24T13:39:35.451Z,70.60
2019-03-24T13:42:03.868Z,70.20
2019-03-24T13:44:33.054Z,70.00
2019-03-24T13:47:01.010Z,70.30
2019-03-24T13:49:28.881Z,70.10
2019-03-24T13:51:56.798Z,70.30
2019-03-24T13:54:26.282Z,70.10
2019-03-24T13:56:54.212Z,69.90
2019-03-24T13:59:22.309Z,70.30
2019-03-24T14:01:50.194Z,70.10
2019-03-24T14:04:18.598Z,70.20
2019-03-24T14:06:46.491Z,70.30
2019-03-24T14:09:14.495Z,70.60
2019-03-24T14:11:42.524Z,70.10
2019-03-24T14:14:11.027Z,69.70
2019-03-24T14:16:39.093Z,70.40
2019-03-24T14:19:08.277Z,70.80
2019-03-24T14:21:37.604Z,71.00
2019-03-24T14:24:05.882Z,70.60
2019-03-24T14:26:34.110Z,70.50
2019-03-24T14:29:02.309Z,70.40
2019-03-24T14:31:30.352Z,70.90
2019-03-24T14:33:58.280Z,70.50
2019-03-24T14:36:26.480Z,70.70
2019-03-24T14:38:54.691Z,70.60
2019-03-24T14:41:22.817Z,70.50
2019-03-24T14:43:51.049Z,70.70
2019-03-24T14:46:20.457Z,70.70
2019-03-24T14:48:48.587Z,70.50
2019-03-24T14:51:16.524Z,71.00
2019-03-24T14:53:45.314Z,71.40
2019-03-24T14:56:13.618Z,71.50
2019-03-24T14:58:43.636Z,71.90
2019-03-24T15:01:12.804Z,72.20
2019-03-24T15:03:40.922Z,71.70
2019-03-24T15:06:10.486Z,72.40
2019-03-24T15:08:38.538Z,72.40
2019-03-24T15:11:06.888Z,72.00
2019-03-24T15:13:35.717Z,72.20
2019-03-24T15:16:03.804Z,72.50
2019-03-24T15:18:32.479Z,72.60
2019-03-24T15:21:05.682Z,72.70
2019-03-24T15:23:30.449Z,72.60
2019-03-24T15:26:00.299Z,72.50
2019-03-24T15:28:28.613Z,72.90
2019-03-24T15:30:56.559Z,73.10
2019-03-24T15:33:24.572Z,72.60
2019-03-24T15:35:53.114Z,72.40
2019-03-24T15:38:21.201Z,72.40
2019-03-24T15:40:49.543Z,72.00
2019-03-24T15:43:17.829Z,72.10
2019-03-24T15:45:45.809Z,71.80
2019-03-24T15:48:16.461Z,72.40
2019-03-24T15:50:44.462Z,71.20
2019-03-24T15:53:12.461Z,71.70
2019-03-24T15:55:40.589Z,72.10
2019-03-24T15:58:09.626Z,72.20
2019-03-24T16:00:48.295Z,72.50
2019-03-24T16:03:19.220Z,72.60
2019-03-24T16:05:49.334Z,72.80
2019-03-24T16:08:17.315Z,73.00
2019-03-24T16:10:45.361Z,73.20
2019-03-24T16:13:15.011Z,73.00
2019-03-24T16:15:43.031Z,73.30
2019-03-24T16:18:11.223Z,73.70
2019-03-24T16:20:40.155Z,73.60
2019-03-24T16:23:08.343Z,73.70
2019-03-24T16:25:36.346Z,73.80
2019-03-24T16:28:04.278Z,73.90
2019-03-24T16:30:32.363Z,74.00
2019-03-24T16:33:00.560Z,74.20
2019-03-24T16:35:30.477Z,74.30
2019-03-24T16:37:59.262Z,74.40
2019-03-24T16:40:28.213Z,75.00
2019-03-24T16:42:56.097Z,75.30
2019-03-24T16:45:23.946Z,75.30
2019-03-24T16:47:51.954Z,75.50
2019-03-24T16:50:19.991Z,75.60
2019-03-24T16:52:47.926Z,75.70
2019-03-24T16:55:15.948Z,75.70
2019-03-24T16:57:44.026Z,75.40
2019-03-24T17:00:12.247Z,75.30
2019-03-24T17:02:42.278Z,75.20
2019-03-24T17:05:10.552Z,75.30
2019-03-24T17:07:38.497Z,75.60
2019-03-24T17:10:08.508Z,75.80
2019-03-24T17:12:36.559Z,76.00
2019-03-24T17:15:05.323Z,76.20
2019-03-24T17:17:33.793Z,76.40
2019-03-24T17:20:02.965Z,76.50
2019-03-24T17:22:33.860Z,76.80
2019-03-24T17:25:01.900Z,77.00
2019-03-24T17:27:30.009Z,77.30
2019-03-24T17:29:58.010Z,77.80
2019-03-24T17:32:26.012Z,78.00
2019-03-24T17:34:54.097Z,78.20
2019-03-24T17:37:22.404Z,78.30
2019-03-24T17:39:50.764Z,78.40
2019-03-24T17:42:18.879Z,78.50
2019-03-24T17:44:46.788Z,78.80
2019-03-24T17:47:14.809Z,78.80
2019-03-24T17:49:42.989Z,79.10
2019-03-24T17:52:10.938Z,79.30
2019-03-24T17:54:38.984Z,79.30
2019-03-24T17:57:07.278Z,79.40
2019-03-24T17:59:36.459Z,79.50
2019-03-24T18:02:13.954Z,79.60
2019-03-24T18:04:34.614Z,79.70
2019-03-24T18:07:02.510Z,79.70
2019-03-24T18:09:31.271Z,79.90
2019-03-24T18:11:59.144Z,80.00
2019-03-24T18:14:27.091Z,80.00
2019-03-24T18:16:55.066Z,80.10
2019-03-24T18:19:23.034Z,80.10
2019-03-24T18:21:51.078Z,80.20
2019-03-24T18:24:19.101Z,80.20
2019-03-24T18:26:46.998Z,80.50
2019-03-24T18:29:15.104Z,80.40
2019-03-24T18:31:43.140Z,80.40
2019-03-24T18:34:11.210Z,80.50
2019-03-24T18:36:39.211Z,80.20
2019-03-24T18:39:08.698Z,80.40
2019-03-24T18:41:36.792Z,80.30
2019-03-24T18:44:04.738Z,80.30
2019-03-24T18:46:32.780Z,80.30
2019-03-24T18:49:00.816Z,80.30
2019-03-24T18:51:28.675Z,80.10
2019-03-24T18:53:56.588Z,80.10
2019-03-24T18:56:24.783Z,80.10
2019-03-24T18:58:52.805Z,80.20
2019-03-24T19:01:20.765Z,80.10
2019-03-24T19:03:48.513Z,80.10
2019-03-24T19:06:17.152Z,80.00
2019-03-24T19:08:45.235Z,80.20
2019-03-24T19:11:13.498Z,80.20
2019-03-24T19:13:41.447Z,80.20
2019-03-24T19:16:09.483Z,80.30
2019-03-24T19:18:37.341Z,80.30
2019-03-24T19:21:05.371Z,80.40
2019-03-24T19:23:33.978Z,80.40
2019-03-24T19:26:01.935Z,80.60
2019-03-24T19:28:30.209Z,80.70
2019-03-24T19:30:58.271Z,80.70
2019-03-24T19:33:26.607Z,81.00
2019-03-24T19:35:54.625Z,81.00
2019-03-24T19:38:23.196Z,81.00
2019-03-24T19:40:50.990Z,81.10
2019-03-24T19:43:18.862Z,81.20
2019-03-24T19:45:46.772Z,81.20
2019-03-24T19:48:14.803Z,81.10
2019-03-24T19:50:42.869Z,81.10
2019-03-24T19:53:11.713Z,80.90
2019-03-24T19:55:40.255Z,80.80
2019-03-24T19:58:08.255Z,80.70
2019-03-24T20:00:38.766Z,80.70
2019-03-24T20:03:09.548Z,80.80
2019-03-24T20:05:38.081Z,80.80
2019-03-24T20:08:06.189Z,81.00
2019-03-24T20:10:34.584Z,81.00
2019-03-24T20:13:02.706Z,81.10
2019-03-24T20:15:30.791Z,81.20
2019-03-24T20:17:58.896Z,81.40
2019-03-24T20:20:28.277Z,81.50
2019-03-24T20:22:58.320Z,81.40
2019-03-24T20:25:26.302Z,81.40
2019-03-24T20:27:54.349Z,81.40
2019-03-24T20:30:22.243Z,81.40
2019-03-24T20:32:50.581Z,81.60
2019-03-24T20:35:19.540Z,81.50
2019-03-24T20:37:47.537Z,81.70
2019-03-24T20:40:16.272Z,81.60
2019-03-24T20:42:44.287Z,81.60
2019-03-24T20:45:13.536Z,81.70
2019-03-24T20:47:41.573Z,81.70
2019-03-24T20:50:12.966Z,82.00
2019-03-24T20:52:40.876Z,82.00
2019-03-24T20:55:11.156Z,82.10
2019-03-24T20:57:39.130Z,82.30
2019-03-24T21:00:08.020Z,82.30
2019-03-24T21:02:38.374Z,82.60
2019-03-24T21:05:07.102Z,82.60
2019-03-24T21:07:35.388Z,82.90
2019-03-24T21:10:04.244Z,82.80
2019-03-24T21:12:32.418Z,83.00
2019-03-24T21:15:00.364Z,83.30
2019-03-24T21:17:28.467Z,83.20
2019-03-24T21:19:56.366Z,83.40
2019-03-24T21:22:24.497Z,83.30
2019-03-24T21:24:52.366Z,83.30
2019-03-24T21:27:20.639Z,83.70
2019-03-24T21:29:48.847Z,83.80
2019-03-24T21:32:17.117Z,83.50
2019-03-24T21:34:45.145Z,83.60
2019-03-24T21:37:13.194Z,83.60
2019-03-24T21:39:41.411Z,83.80
2019-03-24T21:42:09.538Z,83.60
2019-03-24T21:44:37.571Z,83.60
2019-03-24T21:47:05.600Z,83.70
2019-03-24T21:49:33.636Z,83.60
2019-03-24T21:52:01.488Z,83.30
2019-03-24T21:54:29.491Z,83.30
2019-03-24T21:56:57.572Z,83.50
2019-03-24T21:59:25.478Z,83.40
2019-03-24T22:01:53.411Z,83.30
2019-03-24T22:04:22.741Z,83.30
2019-03-24T22:06:51.334Z,83.40
2019-03-24T22:09:19.474Z,83.20
2019-03-24T22:11:47.725Z,83.20
2019-03-24T22:14:15.728Z,83.10
2019-03-24T22:16:43.679Z,83.10
2019-03-24T22:19:12.148Z,83.00
2019-03-24T22:21:42.299Z,82.90
2019-03-24T22:24:10.032Z,83.10
2019-03-24T22:26:40.200Z,83.00
2019-03-24T22:29:09.409Z,82.80
2019-03-24T22:31:37.629Z,83.00
2019-03-24T22:34:05.639Z,82.80
2019-03-24T22:36:35.016Z,82.80
2019-03-24T22:39:04.488Z,83.00
2019-03-24T22:41:32.592Z,83.10
2019-03-24T22:44:00.597Z,83.10
2019-03-24T22:46:28.533Z,82.80
2019-03-24T22:48:56.506Z,82.60
2019-03-24T22:51:24.694Z,82.60
2019-03-24T22:54:02.782Z,82.60
2019-03-24T22:56:22.569Z,82.40
2019-03-24T22:58:50.705Z,82.40
2019-03-24T23:01:18.760Z,82.40
2019-03-24T23:03:46.888Z,82.30
2019-03-24T23:06:14.975Z,82.00
2019-03-24T23:08:42.855Z,81.80
2019-03-24T23:11:10.557Z,81.10
2019-03-24T23:13:38.323Z,81.10
2019-03-24T23:16:06.268Z,80.80
2019-03-24T23:18:34.258Z,80.60
2019-03-24T23:21:02.163Z,80.50
2019-03-24T23:23:29.895Z,80.60
2019-03-24T23:25:57.930Z,80.70
2019-03-24T23:28:25.955Z,80.70
2019-03-24T23:30:55.267Z,80.70
2019-03-24T23:33:23.592Z,80.90
2019-03-24T23:35:51.761Z,80.80
2019-03-24T23:38:19.707Z,80.70
2019-03-24T23:40:47.434Z,80.60
2019-03-24T23:43:15.306Z,80.60
2019-03-24T23:45:43.407Z,80.30
2019-03-24T23:48:11.293Z,80.10
2019-03-24T23:50:39.665Z,79.60
2019-03-24T23:53:07.633Z,79.80
2019-03-24T23:55:35.510Z,79.70
2019-03-24T23:58:03.556Z,79.40
